Aylmer, Canada
Current Conditions -  °F | °C
As of 1:00 PM on Friday 24 Oct 2014 (Local Time) from CYOW Reporting Station
Scattered Clouds Scattered Clouds  
Wind Chill: 57°   Ceiling: Unl
Heat Index: 57°   Visibility: 15mi
Dew Point: 39°   Wind: 7mph
Humidity: 51%   Direction: 270°W
Pressure: 29.89"   Gusts: NA
Location:  45.4°N, 75.85°W
Report Text: CYOW 241700Z 27006KT 220V300 15SM FEW100 FEW200 SCT250 14/04 A2989 RMK AC1CI1CI2 AC TR SLP125
Loading
Personal Weather Stations






























Interactive Weather Map
Tropical Storm Tracking
New forecast layout! Learn more

10-Day Weather Forecast

Advertisements
Track Severe Weather on mobile